createdAt,value
2023-03-22T00:00:25.191Z,7.74
2023-03-22T00:01:25.178Z,7.57
2023-03-22T00:02:25.217Z,7.62
2023-03-22T00:03:25.199Z,7.60
2023-03-22T00:04:25.168Z,7.66
2023-03-22T00:05:25.179Z,7.66
2023-03-22T00:06:25.179Z,7.63
2023-03-22T00:07:25.185Z,7.74
2023-03-22T00:08:25.141Z,7.66
2023-03-22T00:09:25.163Z,7.76
2023-03-22T00:10:25.153Z,7.70
2023-03-22T00:11:25.145Z,7.73
2023-03-22T00:12:25.119Z,7.74
2023-03-22T00:13:25.113Z,7.70
2023-03-22T00:14:25.165Z,7.58
2023-03-22T00:15:25.128Z,7.66
2023-03-22T00:16:25.111Z,7.44
2023-03-22T00:17:25.088Z,7.44
2023-03-22T00:18:25.082Z,7.27
2023-03-22T00:19:25.112Z,7.23
2023-03-22T00:20:25.075Z,7.09
2023-03-22T00:21:25.050Z,6.96
2023-03-22T00:22:25.058Z,6.97
2023-03-22T00:23:25.060Z,7.04
2023-03-22T00:24:25.106Z,7.14
2023-03-22T00:25:25.093Z,7.12
2023-03-22T00:26:25.093Z,7.16
2023-03-22T00:27:25.034Z,7.16
2023-03-22T00:28:25.032Z,7.26
2023-03-22T00:29:25.055Z,7.37
2023-03-22T00:30:25.047Z,7.16
2023-03-22T00:31:25.049Z,7.19
2023-03-22T00:32:25.021Z,7.29
2023-03-22T00:33:24.995Z,7.37
2023-03-22T00:34:24.995Z,7.30
2023-03-22T00:35:25.074Z,7.29
2023-03-22T00:36:24.997Z,7.24
2023-03-22T00:37:24.975Z,7.41
2023-03-22T00:38:35.931Z,7.30
2023-03-22T00:39:27.022Z,7.39
2023-03-22T00:40:25.035Z,7.34
2023-03-22T00:41:24.987Z,7.41
2023-03-22T00:42:24.963Z,7.44
2023-03-22T00:43:24.956Z,7.39
2023-03-22T00:44:25.012Z,7.37
2023-03-22T00:45:24.949Z,7.37
2023-03-22T00:46:24.994Z,7.41
2023-03-22T00:47:24.953Z,7.42
2023-03-22T00:48:24.996Z,7.33
2023-03-22T00:49:24.920Z,7.19
2023-03-22T00:50:24.916Z,7.05
2023-03-22T00:51:24.954Z,7.05
2023-03-22T00:52:24.961Z,6.99
2023-03-22T00:53:24.944Z,7.12
2023-03-22T00:54:24.950Z,7.12
2023-03-22T00:55:24.932Z,7.14
2023-03-22T00:56:24.886Z,7.27
2023-03-22T00:57:24.905Z,7.19
2023-03-22T00:58:24.878Z,7.23
2023-03-22T00:59:24.920Z,7.00
2023-03-22T01:00:24.856Z,7.07
2023-03-22T01:01:24.913Z,7.04
2023-03-22T01:02:24.882Z,6.90
2023-03-22T01:03:24.896Z,6.83
2023-03-22T01:04:24.873Z,6.81
2023-03-22T01:05:24.816Z,6.81
2023-03-22T01:06:24.826Z,6.79
2023-03-22T01:07:24.837Z,6.91
2023-03-22T01:08:24.814Z,6.78
2023-03-22T01:09:24.856Z,6.81
2023-03-22T01:10:24.794Z,6.82
2023-03-22T01:11:24.791Z,6.73
2023-03-22T01:12:24.805Z,6.76
2023-03-22T01:13:24.852Z,6.86
2023-03-22T01:14:24.790Z,6.81
2023-03-22T01:15:24.804Z,6.87
2023-03-22T01:16:24.857Z,6.75
2023-03-22T01:17:24.780Z,6.76
2023-03-22T01:18:24.812Z,6.75
2023-03-22T01:19:24.775Z,6.73
2023-03-22T01:20:24.728Z,6.72
2023-03-22T01:21:24.737Z,6.82
2023-03-22T01:22:24.791Z,6.86
2023-03-22T01:23:24.700Z,6.81
2023-03-22T01:24:24.722Z,6.81
2023-03-22T01:25:24.736Z,6.91
2023-03-22T01:26:24.716Z,6.82
2023-03-22T01:27:24.698Z,6.68
2023-03-22T01:28:26.979Z,6.73
2023-03-22T01:29:24.699Z,6.64
2023-03-22T01:30:24.821Z,6.63
2023-03-22T01:31:24.672Z,6.64
2023-03-22T01:32:24.693Z,6.64
2023-03-22T01:33:24.672Z,6.65
2023-03-22T01:34:24.649Z,6.73
2023-03-22T01:35:24.688Z,6.69
2023-03-22T01:36:24.681Z,6.83
2023-03-22T01:37:24.646Z,6.78
2023-03-22T01:38:24.642Z,6.83
2023-03-22T01:39:24.627Z,6.79
2023-03-22T01:40:24.670Z,6.96
2023-03-22T01:41:24.662Z,6.94
2023-03-22T01:42:24.741Z,6.94
2023-03-22T01:43:24.599Z,6.96
2023-03-22T01:44:24.663Z,7.05
2023-03-22T01:45:24.647Z,7.05
2023-03-22T01:46:24.642Z,6.94
2023-03-22T01:47:24.578Z,7.00
2023-03-22T01:48:24.654Z,6.82
2023-03-22T01:49:24.682Z,6.82
2023-03-22T01:50:24.580Z,6.60
2023-03-22T01:51:24.586Z,6.53
2023-03-22T01:52:24.558Z,6.51
2023-03-22T01:53:24.548Z,6.51
2023-03-22T01:54:24.563Z,6.48
2023-03-22T01:55:24.530Z,6.43
2023-03-22T01:56:24.549Z,6.36
2023-03-22T01:57:24.551Z,6.30
2023-03-22T01:58:24.553Z,6.38
2023-03-22T01:59:24.572Z,6.43
2023-03-22T02:00:24.515Z,6.46
2023-03-22T02:01:24.554Z,6.51
2023-03-22T02:02:24.570Z,6.60
2023-03-22T02:03:24.480Z,6.68
2023-03-22T02:04:24.573Z,6.57
2023-03-22T02:05:24.483Z,6.71
2023-03-22T02:06:24.504Z,6.64
2023-03-22T02:07:24.501Z,6.60
2023-03-22T02:08:24.489Z,6.58
2023-03-22T02:09:24.477Z,6.65
2023-03-22T02:10:24.452Z,6.76
2023-03-22T02:11:24.491Z,6.68
2023-03-22T02:12:24.460Z,6.81
2023-03-22T02:13:24.438Z,6.79
2023-03-22T02:14:26.816Z,6.83
2023-03-22T02:15:24.435Z,6.94
2023-03-22T02:16:24.529Z,6.86
2023-03-22T02:17:24.414Z,6.93
2023-03-22T02:18:24.435Z,7.00
2023-03-22T02:19:24.405Z,7.01
2023-03-22T02:20:24.393Z,7.00
2023-03-22T02:21:24.404Z,7.01
2023-03-22T02:22:24.378Z,7.11
2023-03-22T02:23:24.444Z,6.72
2023-03-22T02:24:24.408Z,6.87
2023-03-22T02:25:24.348Z,6.76
2023-03-22T02:26:24.356Z,6.83
2023-03-22T02:27:24.351Z,6.81
2023-03-22T02:28:24.338Z,6.71
2023-03-22T02:29:24.426Z,6.53
2023-03-22T02:30:24.344Z,6.50
2023-03-22T02:31:24.395Z,6.46
2023-03-22T02:32:24.319Z,6.45
2023-03-22T02:33:24.337Z,6.46
2023-03-22T02:34:24.371Z,6.46
2023-03-22T02:35:24.337Z,6.45
2023-03-22T02:36:24.309Z,6.60
2023-03-22T02:37:24.295Z,6.58
2023-03-22T02:38:24.317Z,6.69
2023-03-22T02:39:24.270Z,6.68
2023-03-22T02:40:25.334Z,6.73
2023-03-22T02:41:24.308Z,6.82
2023-03-22T02:42:24.273Z,6.83
2023-03-22T02:43:24.305Z,7.00
2023-03-22T02:44:24.270Z,6.97
2023-03-22T02:45:24.346Z,7.09
2023-03-22T02:46:24.274Z,7.05
2023-03-22T02:47:24.269Z,7.15
2023-03-22T02:48:24.254Z,7.07
2023-03-22T02:49:24.236Z,6.97
2023-03-22T02:50:24.282Z,7.01
2023-03-22T02:51:24.260Z,7.09
2023-03-22T02:52:24.221Z,7.05
2023-03-22T02:53:24.235Z,7.11
2023-03-22T02:54:24.209Z,7.09
2023-03-22T02:55:24.186Z,7.05
2023-03-22T02:56:24.253Z,7.11
2023-03-22T02:57:24.228Z,7.16
2023-03-22T02:58:24.180Z,7.12
2023-03-22T02:59:24.187Z,7.16
2023-03-22T03:00:24.165Z,7.19
2023-03-22T03:01:24.266Z,7.09
2023-03-22T03:02:24.254Z,7.00
2023-03-22T03:03:24.161Z,7.07
2023-03-22T03:04:24.165Z,6.97
2023-03-22T03:05:24.149Z,7.07
2023-03-22T03:06:24.145Z,7.15
2023-03-22T03:07:24.188Z,7.09
2023-03-22T03:08:24.122Z,7.00
2023-03-22T03:09:24.120Z,6.99
2023-03-22T03:10:24.120Z,7.05
2023-03-22T03:11:24.136Z,6.94
2023-03-22T03:12:24.111Z,6.81
2023-03-22T03:13:24.101Z,6.79
2023-03-22T03:14:24.122Z,6.75
2023-03-22T03:15:24.104Z,6.71
2023-03-22T03:16:24.127Z,6.69
2023-03-22T03:17:24.133Z,6.58
2023-03-22T03:18:24.065Z,6.68
2023-03-22T03:19:24.057Z,6.68
2023-03-22T03:20:24.061Z,6.73
2023-03-22T03:21:25.142Z,6.81
2023-03-22T03:22:24.087Z,6.81
2023-03-22T03:23:24.044Z,6.75
2023-03-22T03:24:24.040Z,6.81
2023-03-22T03:25:24.037Z,6.72
2023-03-22T03:26:24.085Z,6.89
2023-03-22T03:27:24.146Z,6.83
2023-03-22T03:28:24.108Z,6.93
2023-03-22T03:29:24.013Z,6.91
2023-03-22T03:30:24.020Z,7.08
2023-03-22T03:31:24.084Z,7.05
2023-03-22T03:32:23.978Z,7.00
2023-03-22T03:33:24.026Z,7.14
2023-03-22T03:34:23.997Z,7.07
2023-03-22T03:35:24.008Z,7.21
2023-03-22T03:36:24.022Z,7.09
2023-03-22T03:37:23.998Z,7.14
2023-03-22T03:38:23.962Z,7.12
2023-03-22T03:39:23.967Z,6.99
2023-03-22T03:40:23.970Z,7.09
2023-03-22T03:41:23.935Z,7.07
2023-03-22T03:42:23.966Z,6.94
2023-03-22T03:43:23.924Z,6.97
2023-03-22T03:44:23.992Z,6.97
2023-03-22T03:45:23.902Z,6.97
2023-03-22T03:46:23.925Z,6.94
2023-03-22T03:47:23.938Z,6.99
2023-03-22T03:48:23.995Z,7.12
2023-03-22T03:49:23.927Z,7.08
2023-03-22T03:50:23.893Z,7.07
2023-03-22T03:51:23.909Z,7.11
2023-03-22T03:52:23.891Z,7.18
2023-03-22T03:53:23.910Z,7.05
2023-03-22T03:54:23.913Z,7.15
2023-03-22T03:55:23.900Z,7.09
2023-03-22T03:56:23.852Z,7.07
2023-03-22T03:57:23.832Z,7.12
2023-03-22T03:58:23.878Z,7.12
2023-03-22T03:59:23.860Z,7.21
2023-03-22T04:00:23.926Z,7.24
2023-03-22T04:01:23.879Z,7.27
2023-03-22T04:02:23.903Z,7.30
2023-03-22T04:03:23.854Z,7.27
2023-03-22T04:04:23.854Z,7.34
2023-03-22T04:05:23.844Z,7.36
2023-03-22T04:06:23.837Z,7.30
2023-03-22T04:07:23.802Z,7.42
2023-03-22T04:08:23.779Z,7.33
2023-03-22T04:09:23.912Z,7.21
2023-03-22T04:10:23.819Z,7.15
2023-03-22T04:11:23.804Z,7.19
2023-03-22T04:12:23.758Z,7.19
2023-03-22T04:13:23.758Z,7.24
2023-03-22T04:14:23.741Z,7.24
2023-03-22T04:15:23.777Z,7.24
2023-03-22T04:16:23.893Z,7.41
2023-03-22T04:17:23.747Z,7.36
2023-03-22T04:18:23.745Z,7.48
2023-03-22T04:19:23.713Z,7.48
2023-03-22T04:20:23.789Z,7.42
2023-03-22T04:21:23.722Z,7.42
2023-03-22T04:22:23.740Z,7.55
2023-03-22T04:23:24.518Z,7.58
2023-03-22T04:24:23.726Z,7.60
2023-03-22T04:25:23.694Z,7.62
2023-03-22T04:26:26.140Z,7.63
2023-03-22T04:27:23.678Z,7.66
2023-03-22T04:28:23.651Z,7.58
2023-03-22T04:29:23.667Z,7.62
2023-03-22T04:30:23.664Z,7.60
2023-03-22T04:31:23.698Z,7.63
2023-03-22T04:32:23.633Z,7.52
2023-03-22T04:33:23.761Z,7.73
2023-03-22T04:34:23.669Z,7.60
2023-03-22T04:35:23.686Z,7.60
2023-03-22T04:36:23.644Z,7.63
2023-03-22T04:37:23.642Z,7.67
2023-03-22T04:38:23.665Z,7.57
2023-03-22T04:39:23.624Z,7.69
2023-03-22T04:40:23.604Z,7.58
2023-03-22T04:41:23.593Z,7.58
2023-03-22T04:42:23.606Z,7.51
2023-03-22T04:43:23.624Z,7.57
2023-03-22T04:44:23.620Z,7.58
2023-03-22T04:45:23.573Z,7.58
2023-03-22T04:46:23.615Z,7.63
2023-03-22T04:47:23.604Z,7.63
2023-03-22T04:48:23.664Z,7.57
2023-03-22T04:49:23.558Z,7.70
2023-03-22T04:50:23.605Z,7.69
2023-03-22T04:51:23.562Z,7.69
2023-03-22T04:52:23.560Z,7.54
2023-03-22T04:53:23.570Z,7.73
2023-03-22T04:54:23.575Z,7.70
2023-03-22T04:55:23.608Z,7.73
2023-03-22T04:56:23.530Z,7.76
2023-03-22T04:57:23.507Z,7.74
2023-03-22T04:58:23.520Z,7.70
2023-03-22T04:59:23.590Z,7.50
2023-03-22T05:00:23.538Z,7.52
2023-03-22T05:01:23.555Z,7.69
2023-03-22T05:02:23.568Z,7.57
2023-03-22T05:03:23.510Z,7.44
2023-03-22T05:04:23.482Z,7.47
2023-03-22T05:05:23.619Z,7.47
2023-03-22T05:06:23.500Z,7.47
2023-03-22T05:07:23.469Z,7.42
2023-03-22T05:08:23.473Z,7.41
2023-03-22T05:09:23.734Z,7.44
2023-03-22T05:10:24.495Z,7.54
2023-03-22T05:11:23.473Z,7.58
2023-03-22T05:12:23.440Z,7.67
2023-03-22T05:13:23.448Z,7.66
2023-03-22T05:14:23.476Z,7.82
2023-03-22T05:15:23.482Z,7.74
2023-03-22T05:16:23.456Z,7.62
2023-03-22T05:17:23.444Z,7.58
2023-03-22T05:18:23.417Z,7.63
2023-03-22T05:19:23.391Z,7.67
2023-03-22T05:20:23.411Z,7.77
2023-03-22T05:21:23.377Z,7.60
2023-03-22T05:22:23.385Z,7.66
2023-03-22T05:23:23.392Z,7.70
2023-03-22T05:24:23.365Z,7.71
2023-03-22T05:25:23.385Z,7.81
2023-03-22T05:26:23.389Z,7.88
2023-03-22T05:27:23.380Z,7.88
2023-03-22T05:28:23.381Z,7.88
2023-03-22T05:29:23.361Z,7.95
2023-03-22T05:30:23.331Z,8.07
2023-03-22T05:31:23.404Z,7.94
2023-03-22T05:32:23.399Z,8.17
2023-03-22T05:33:23.354Z,8.14
2023-03-22T05:34:23.311Z,7.99
2023-03-22T05:35:23.319Z,8.20
2023-03-22T05:36:23.324Z,8.10
2023-03-22T05:37:23.315Z,8.09
2023-03-22T05:38:23.357Z,7.99
2023-03-22T05:39:23.300Z,7.94
2023-03-22T05:40:23.283Z,7.85
2023-03-22T05:41:23.482Z,7.84
2023-03-22T05:42:23.276Z,7.85
2023-03-22T05:43:23.333Z,7.95
2023-03-22T05:44:23.274Z,8.09
2023-03-22T05:45:23.276Z,8.04
2023-03-22T05:46:23.378Z,7.91
2023-03-22T05:47:23.258Z,7.82
2023-03-22T05:48:23.318Z,7.76
2023-03-22T05:49:23.254Z,7.77
2023-03-22T05:50:23.247Z,7.81
2023-03-22T05:51:23.245Z,7.94
2023-03-22T05:52:23.234Z,7.89
2023-03-22T05:53:23.235Z,8.00
2023-03-22T05:54:23.281Z,8.04
2023-03-22T05:55:23.217Z,8.03
2023-03-22T05:56:23.229Z,7.95
2023-03-22T05:57:23.221Z,8.07
2023-03-22T05:58:23.199Z,8.13
2023-03-22T05:59:23.218Z,8.04
2023-03-22T06:00:23.277Z,7.99
2023-03-22T06:01:23.217Z,7.95
2023-03-22T06:02:23.178Z,7.99
2023-03-22T06:03:23.219Z,8.00
2023-03-22T06:04:23.168Z,8.00
2023-03-22T06:05:23.189Z,7.91
2023-03-22T06:06:23.151Z,7.81
2023-03-22T06:07:23.177Z,7.85
2023-03-22T06:08:26.053Z,7.84
2023-03-22T06:09:23.171Z,7.86
2023-03-22T06:10:23.182Z,8.00
2023-03-22T06:11:23.128Z,8.12
2023-03-22T06:12:23.133Z,8.02
2023-03-22T06:13:23.194Z,8.10
2023-03-22T06:14:23.123Z,8.17
2023-03-22T06:15:23.152Z,8.21
2023-03-22T06:16:23.161Z,8.31
2023-03-22T06:17:23.109Z,8.34
2023-03-22T06:18:23.103Z,8.29
2023-03-22T06:19:23.083Z,8.40
2023-03-22T06:20:23.095Z,8.45
2023-03-22T06:21:23.099Z,8.68
2023-03-22T06:22:23.083Z,8.65
2023-03-22T06:23:23.060Z,8.61
2023-03-22T06:24:23.082Z,8.67
2023-03-22T06:25:23.073Z,8.70
2023-03-22T06:26:23.105Z,8.76
2023-03-22T06:27:23.174Z,8.54
2023-03-22T06:28:23.038Z,8.42
2023-03-22T06:29:23.059Z,8.40
2023-03-22T06:30:23.137Z,8.28
2023-03-22T06:31:23.043Z,8.29
2023-03-22T06:32:23.034Z,8.27
2023-03-22T06:33:23.050Z,8.22
2023-03-22T06:34:23.002Z,8.28
2023-03-22T06:35:23.071Z,8.18
2023-03-22T06:36:23.051Z,8.27
2023-03-22T06:37:22.999Z,8.25
2023-03-22T06:38:23.025Z,8.42
2023-03-22T06:39:23.005Z,8.55
2023-03-22T06:40:22.987Z,8.68
2023-03-22T06:41:22.974Z,8.80
2023-03-22T06:42:22.964Z,8.83
2023-03-22T06:43:22.987Z,8.86
2023-03-22T06:44:22.961Z,8.78
2023-03-22T06:45:22.951Z,8.91
2023-03-22T06:46:23.052Z,9.13
2023-03-22T06:47:22.969Z,9.27
2023-03-22T06:48:23.021Z,9.53
2023-03-22T06:49:22.950Z,9.41
2023-03-22T06:50:22.939Z,9.58
2023-03-22T06:51:22.939Z,9.63
2023-03-22T06:52:22.990Z,9.86
2023-03-22T06:53:22.938Z,9.99
2023-03-22T06:54:22.943Z,10.10
2023-03-22T06:55:22.967Z,9.99
2023-03-22T06:56:22.929Z,10.06
2023-03-22T06:57:22.899Z,10.04
2023-03-22T06:58:22.878Z,10.02
2023-03-22T06:59:22.897Z,9.92
2023-03-22T07:00:22.932Z,9.92
2023-03-22T07:01:22.961Z,9.96
2023-03-22T07:02:22.914Z,9.86
2023-03-22T07:03:22.907Z,9.92
2023-03-22T07:04:22.951Z,9.93
2023-03-22T07:05:22.897Z,9.86
2023-03-22T07:06:22.888Z,9.74
2023-03-22T07:07:22.884Z,9.74
2023-03-22T07:08:22.839Z,9.88
2023-03-22T07:09:22.907Z,9.80
2023-03-22T07:10:22.899Z,9.83
2023-03-22T07:11:22.855Z,9.86
2023-03-22T07:12:22.892Z,9.96
2023-03-22T07:13:22.872Z,9.99
2023-03-22T07:14:22.876Z,9.98
2023-03-22T07:15:22.859Z,10.22
2023-03-22T07:16:23.978Z,10.22
2023-03-22T07:17:22.953Z,10.29
2023-03-22T07:18:22.788Z,10.32
2023-03-22T07:19:22.805Z,10.44
2023-03-22T07:20:22.837Z,10.39
2023-03-22T07:21:22.816Z,10.51
2023-03-22T07:22:22.813Z,10.42
2023-03-22T07:23:22.801Z,10.49
2023-03-22T07:24:22.801Z,10.52
2023-03-22T07:25:22.837Z,10.49
2023-03-22T07:26:22.773Z,10.43
2023-03-22T07:27:22.800Z,10.54
2023-03-22T07:28:22.761Z,10.54
2023-03-22T07:29:22.766Z,10.57
2023-03-22T07:30:22.773Z,10.52
2023-03-22T07:31:22.777Z,10.43
2023-03-22T07:32:22.879Z,10.44
2023-03-22T07:33:22.747Z,10.49
2023-03-22T07:34:22.769Z,10.39
2023-03-22T07:35:24.983Z,10.36
2023-03-22T07:36:22.724Z,10.42
2023-03-22T07:37:22.685Z,10.44
2023-03-22T07:38:22.734Z,10.47
2023-03-22T07:39:22.704Z,10.49
2023-03-22T07:40:22.686Z,10.46
2023-03-22T07:41:22.704Z,10.49
2023-03-22T07:42:22.681Z,10.47
2023-03-22T07:43:22.728Z,10.43
2023-03-22T07:44:22.716Z,10.36
2023-03-22T07:45:22.731Z,10.20
2023-03-22T07:46:22.810Z,10.14
2023-03-22T07:47:39.581Z,10.18
2023-03-22T07:48:24.735Z,10.25
2023-03-22T07:49:22.690Z,10.26
2023-03-22T07:50:22.636Z,10.26
2023-03-22T07:51:22.647Z,10.34
2023-03-22T07:52:22.640Z,10.26
2023-03-22T07:53:22.653Z,10.32
2023-03-22T07:54:32.867Z,10.28
2023-03-22T07:55:24.640Z,10.36
2023-03-22T07:56:22.627Z,10.34
2023-03-22T07:57:22.620Z,10.29
2023-03-22T07:58:22.756Z,10.32
2023-03-22T07:59:22.661Z,10.31
2023-03-22T08:00:22.626Z,10.32
2023-03-22T08:01:22.615Z,10.44
2023-03-22T08:02:22.687Z,10.44
2023-03-22T08:03:22.586Z,10.46
2023-03-22T08:04:23.657Z,10.47
2023-03-22T08:05:22.618Z,10.44
2023-03-22T08:06:22.572Z,10.63
2023-03-22T08:07:22.656Z,10.51
2023-03-22T08:08:22.564Z,10.65
2023-03-22T08:09:22.610Z,10.62
2023-03-22T08:10:22.567Z,10.58
2023-03-22T08:11:22.554Z,10.78
2023-03-22T08:12:22.622Z,10.76
2023-03-22T08:13:23.423Z,10.83
2023-03-22T08:14:35.490Z,10.95
2023-03-22T08:15:24.558Z,10.99
2023-03-22T08:16:22.614Z,10.98
2023-03-22T08:17:22.600Z,10.90
2023-03-22T08:18:22.541Z,10.91
2023-03-22T08:19:22.545Z,10.88
2023-03-22T08:20:22.553Z,10.93
2023-03-22T08:21:22.504Z,10.88
2023-03-22T08:22:22.560Z,10.86
2023-03-22T08:23:31.629Z,10.76
2023-03-22T08:24:24.724Z,10.88
2023-03-22T08:25:22.499Z,10.87
2023-03-22T08:26:22.507Z,10.83
2023-03-22T08:27:22.607Z,10.88
2023-03-22T08:28:22.517Z,10.94
2023-03-22T08:29:22.514Z,10.81
2023-03-22T08:30:22.522Z,10.80
2023-03-22T08:31:22.680Z,10.90
2023-03-22T08:32:22.472Z,10.88
2023-03-22T08:33:22.592Z,10.88
2023-03-22T08:34:22.454Z,10.88
2023-03-22T08:35:22.502Z,10.90
2023-03-22T08:36:22.449Z,10.93
2023-03-22T08:37:22.484Z,10.86
2023-03-22T08:38:23.483Z,10.87
2023-03-22T08:39:22.436Z,10.83
2023-03-22T08:40:22.481Z,10.86
2023-03-22T08:41:22.444Z,10.88
2023-03-22T08:42:22.472Z,11.06
2023-03-22T08:43:22.509Z,11.19
2023-03-22T08:44:22.447Z,11.30
2023-03-22T08:45:22.417Z,11.54
2023-03-22T08:46:22.497Z,11.62
2023-03-22T08:47:22.393Z,11.74
2023-03-22T08:48:22.442Z,11.79
2023-03-22T08:49:22.483Z,11.79
2023-03-22T08:50:22.377Z,11.77
2023-03-22T08:51:22.405Z,11.75
2023-03-22T08:52:22.340Z,11.72
2023-03-22T08:53:22.345Z,11.67
2023-03-22T08:54:23.364Z,11.57
2023-03-22T08:55:22.348Z,11.77
2023-03-22T08:56:22.332Z,11.74
2023-03-22T08:57:22.335Z,11.77
2023-03-22T08:58:22.327Z,11.81
2023-03-22T08:59:22.321Z,11.96
2023-03-22T09:00:22.346Z,11.85
2023-03-22T09:01:22.435Z,11.74
2023-03-22T09:02:22.366Z,11.69
2023-03-22T09:03:22.506Z,11.64
2023-03-22T09:04:22.348Z,11.63
2023-03-22T09:05:22.349Z,11.41
2023-03-22T09:06:22.306Z,11.49
2023-03-22T09:07:22.355Z,11.60
2023-03-22T09:08:22.315Z,11.54
2023-03-22T09:09:22.264Z,11.49
2023-03-22T09:10:22.299Z,11.56
2023-03-22T09:11:22.266Z,11.56
2023-03-22T09:12:22.286Z,11.53
2023-03-22T09:13:22.247Z,11.44
2023-03-22T09:14:22.272Z,11.38
2023-03-22T09:15:22.269Z,11.41
2023-03-22T09:16:22.288Z,11.48
2023-03-22T09:17:22.611Z,11.42
2023-03-22T09:18:23.329Z,11.46
2023-03-22T09:19:22.208Z,11.57
2023-03-22T09:20:22.199Z,11.57
2023-03-22T09:21:22.217Z,11.64
2023-03-22T09:22:22.194Z,11.79
2023-03-22T09:23:22.219Z,11.87
2023-03-22T09:24:22.190Z,12.08
2023-03-22T09:25:22.212Z,12.19
2023-03-22T09:26:22.181Z,12.21
2023-03-22T09:27:22.184Z,12.30
2023-03-22T09:28:22.238Z,12.49
2023-03-22T09:29:22.251Z,12.38
2023-03-22T09:30:22.141Z,12.55
2023-03-22T09:31:22.197Z,12.73
2023-03-22T09:32:22.182Z,12.92
2023-03-22T09:33:22.187Z,13.07
2023-03-22T09:34:22.143Z,12.91
2023-03-22T09:35:22.171Z,12.99
2023-03-22T09:36:22.139Z,12.94
2023-03-22T09:37:22.095Z,12.98
2023-03-22T09:38:22.137Z,12.92
2023-03-22T09:39:22.100Z,12.87
2023-03-22T09:40:22.126Z,12.87
2023-03-22T09:41:22.103Z,12.87
2023-03-22T09:42:22.093Z,12.80
2023-03-22T09:43:22.077Z,12.87
2023-03-22T09:44:22.095Z,12.73
2023-03-22T09:45:22.106Z,12.71
2023-03-22T09:46:22.269Z,12.62
2023-03-22T09:47:22.081Z,12.66
2023-03-22T09:48:22.081Z,12.62
2023-03-22T09:49:22.072Z,12.55
2023-03-22T09:50:22.108Z,12.62
2023-03-22T09:51:22.007Z,12.56
2023-03-22T09:52:22.116Z,12.61
2023-03-22T09:53:22.060Z,12.55
2023-03-22T09:54:21.994Z,12.59
2023-03-22T09:55:21.983Z,12.62
2023-03-22T09:56:22.085Z,12.61
2023-03-22T09:57:21.976Z,12.62
2023-03-22T09:58:22.013Z,12.62
2023-03-22T09:59:21.975Z,12.54
2023-03-22T10:00:22.071Z,12.52
2023-03-22T10:01:22.199Z,12.61
2023-03-22T10:02:21.992Z,12.62
2023-03-22T10:03:21.941Z,12.67
2023-03-22T10:04:22.032Z,12.74
2023-03-22T10:05:21.924Z,12.81
2023-03-22T10:06:21.936Z,12.67
2023-03-22T10:07:21.921Z,12.80
2023-03-22T10:08:21.907Z,12.76
2023-03-22T10:09:21.905Z,12.91
2023-03-22T10:10:21.940Z,12.85
2023-03-22T10:11:21.925Z,12.88
2023-03-22T10:12:21.883Z,12.94
2023-03-22T10:13:21.873Z,12.89
2023-03-22T10:14:21.879Z,12.91
2023-03-22T10:15:21.900Z,12.87
2023-03-22T10:16:21.911Z,12.74
2023-03-22T10:17:21.920Z,12.77
2023-03-22T10:18:21.852Z,12.71
2023-03-22T10:19:21.861Z,12.77
2023-03-22T10:20:21.900Z,12.70
2023-03-22T10:21:21.928Z,12.66
2023-03-22T10:22:21.861Z,12.67
2023-03-22T10:23:21.810Z,12.76
2023-03-22T10:24:21.845Z,12.71
2023-03-22T10:25:21.808Z,12.85
2023-03-22T10:26:21.924Z,12.92
2023-03-22T10:27:21.835Z,12.91
2023-03-22T10:28:21.796Z,12.94
2023-03-22T10:29:21.776Z,12.95
2023-03-22T10:30:21.773Z,12.95
2023-03-22T10:31:21.790Z,12.89
2023-03-22T10:32:21.815Z,13.07
2023-03-22T10:33:21.811Z,13.03
2023-03-22T10:34:21.756Z,13.07
2023-03-22T10:35:21.799Z,13.06
2023-03-22T10:36:21.739Z,13.09
2023-03-22T10:37:21.728Z,13.09
2023-03-22T10:38:21.730Z,12.89
2023-03-22T10:39:21.787Z,12.92
2023-03-22T10:40:21.704Z,12.84
2023-03-22T10:41:21.711Z,12.87
2023-03-22T10:42:21.682Z,13.04
2023-03-22T10:43:21.714Z,13.10
2023-03-22T10:44:21.693Z,13.01
2023-03-22T10:45:21.669Z,13.14
2023-03-22T10:46:21.687Z,13.10
2023-03-22T10:47:21.670Z,13.10
2023-03-22T10:48:21.779Z,13.14
2023-03-22T10:49:21.670Z,13.28
2023-03-22T10:50:21.662Z,13.32
2023-03-22T10:51:21.636Z,13.31
2023-03-22T10:52:21.625Z,13.43
2023-03-22T10:53:21.642Z,13.54
2023-03-22T10:54:21.675Z,13.73
2023-03-22T10:55:21.645Z,13.76
2023-03-22T10:56:21.639Z,13.80
2023-03-22T10:57:21.642Z,13.83
2023-03-22T10:58:21.577Z,13.79
2023-03-22T10:59:21.631Z,13.73
2023-03-22T11:00:21.811Z,13.71
2023-03-22T11:01:21.641Z,13.69
2023-03-22T11:02:21.872Z,13.55
2023-03-22T11:03:21.581Z,13.59
2023-03-22T11:04:21.576Z,13.63
2023-03-22T11:05:21.556Z,13.63
2023-03-22T11:06:21.551Z,13.68
2023-03-22T11:07:21.543Z,13.66
2023-03-22T11:08:21.537Z,13.66
2023-03-22T11:09:21.577Z,13.57
2023-03-22T11:10:21.605Z,13.62
2023-03-22T11:11:21.506Z,13.48
2023-03-22T11:12:21.508Z,13.59
2023-03-22T11:13:21.506Z,13.61
2023-03-22T11:14:21.482Z,13.73
2023-03-22T11:15:21.518Z,13.76
2023-03-22T11:16:21.569Z,13.79
2023-03-22T11:17:21.452Z,13.83
2023-03-22T11:18:21.436Z,13.80
2023-03-22T11:19:21.446Z,13.87
2023-03-22T11:20:21.485Z,14.01
2023-03-22T11:21:21.450Z,14.02
2023-03-22T11:22:21.424Z,14.20
2023-03-22T11:23:21.403Z,14.17
2023-03-22T11:24:22.415Z,14.39
2023-03-22T11:25:21.392Z,14.48
2023-03-22T11:26:21.434Z,14.54
2023-03-22T11:27:21.379Z,14.54
2023-03-22T11:28:21.375Z,14.63
2023-03-22T11:29:21.381Z,14.59
2023-03-22T11:30:21.384Z,14.53
2023-03-22T11:31:21.410Z,14.60
2023-03-22T11:32:21.411Z,14.56
2023-03-22T11:33:21.358Z,14.52
2023-03-22T11:34:21.330Z,14.52
2023-03-22T11:35:21.424Z,14.54
2023-03-22T11:36:21.367Z,14.64
2023-03-22T11:37:21.398Z,14.64
2023-03-22T11:38:21.353Z,14.74
2023-03-22T11:39:21.293Z,14.80
2023-03-22T11:40:21.321Z,14.90
2023-03-22T11:41:21.296Z,15.11
2023-03-22T11:42:21.282Z,15.16
2023-03-22T11:43:21.310Z,15.19
2023-03-22T11:44:21.265Z,15.16
2023-03-22T11:45:21.262Z,15.27
2023-03-22T11:46:21.271Z,15.38
2023-03-22T11:47:21.242Z,15.52
2023-03-22T11:48:21.404Z,15.59
2023-03-22T11:49:21.234Z,15.64
2023-03-22T11:50:21.228Z,15.53
2023-03-22T11:51:21.216Z,15.52
2023-03-22T11:52:21.188Z,15.28
2023-03-22T11:53:21.236Z,15.22
2023-03-22T11:54:21.209Z,15.03
2023-03-22T11:55:21.189Z,14.87
2023-03-22T11:56:21.163Z,14.85
2023-03-22T11:57:21.180Z,14.85
2023-03-22T11:58:22.416Z,14.90
2023-03-22T11:59:21.181Z,15.00
2023-03-22T12:00:21.161Z,15.09
2023-03-22T12:01:21.118Z,15.19
2023-03-22T12:02:21.175Z,15.22
2023-03-22T12:03:21.275Z,15.48
2023-03-22T12:04:21.178Z,15.60
2023-03-22T12:05:21.239Z,15.84
2023-03-22T12:06:21.143Z,15.93
2023-03-22T12:07:21.086Z,16.01
2023-03-22T12:08:21.070Z,16.07
2023-03-22T12:09:21.107Z,15.88
2023-03-22T12:10:21.059Z,15.92
2023-03-22T12:11:21.095Z,15.91
2023-03-22T12:12:21.042Z,15.64
2023-03-22T12:13:21.039Z,15.51
2023-03-22T12:14:21.072Z,15.20
2023-03-22T12:15:21.055Z,15.00
2023-03-22T12:16:22.327Z,14.85
2023-03-22T12:17:21.013Z,14.61
2023-03-22T12:18:21.088Z,14.63
2023-03-22T12:19:21.012Z,14.52
2023-03-22T12:20:21.018Z,14.54
2023-03-22T12:21:20.988Z,14.45
2023-03-22T12:22:20.962Z,14.53
2023-03-22T12:23:20.992Z,14.59
2023-03-22T12:24:21.006Z,14.63
2023-03-22T12:25:20.966Z,14.66
2023-03-22T12:26:20.942Z,14.61
2023-03-22T12:27:20.960Z,14.64
2023-03-22T12:28:20.921Z,14.64
2023-03-22T12:29:20.928Z,14.61
2023-03-22T12:30:20.948Z,14.66
2023-03-22T12:31:20.947Z,14.74
2023-03-22T12:32:20.920Z,14.82
2023-03-22T12:33:20.953Z,14.95
2023-03-22T12:34:20.874Z,15.00
2023-03-22T12:35:20.960Z,15.12
2023-03-22T12:36:20.926Z,15.22
2023-03-22T12:37:20.849Z,15.33
2023-03-22T12:38:20.855Z,15.20
2023-03-22T12:39:20.837Z,15.35
2023-03-22T12:40:20.848Z,15.33
2023-03-22T12:41:20.863Z,15.41
2023-03-22T12:42:20.841Z,15.30
2023-03-22T12:43:20.821Z,15.18
2023-03-22T12:44:20.831Z,14.91
2023-03-22T12:45:20.792Z,14.79
2023-03-22T12:46:20.862Z,14.71
2023-03-22T12:47:20.777Z,14.63
2023-03-22T12:48:20.864Z,14.63
2023-03-22T12:49:20.808Z,14.67
2023-03-22T12:50:20.766Z,14.63
2023-03-22T12:51:20.765Z,14.67
2023-03-22T12:52:20.747Z,14.66
2023-03-22T12:53:20.734Z,14.69
2023-03-22T12:54:20.733Z,14.69
2023-03-22T12:55:20.714Z,14.72
2023-03-22T12:56:20.719Z,14.71
2023-03-22T12:57:20.729Z,14.90
2023-03-22T12:58:20.685Z,15.01
2023-03-22T12:59:20.753Z,15.01
2023-03-22T13:00:20.902Z,15.12
2023-03-22T13:01:20.716Z,15.12
2023-03-22T13:02:21.663Z,15.18
2023-03-22T13:03:20.825Z,15.20
2023-03-22T13:04:20.725Z,15.22
2023-03-22T13:05:20.667Z,15.27
2023-03-22T13:06:20.671Z,15.16